createdAt,value
2023-02-11T00:00:05.925Z,9.00
2023-02-11T00:06:11.578Z,8.23
2023-02-11T00:09:13.402Z,9.07
2023-02-11T00:12:15.832Z,7.57
2023-02-11T00:15:17.724Z,6.53
2023-02-11T00:18:20.354Z,8.23
2023-02-11T00:21:24.629Z,8.32
2023-02-11T00:24:26.580Z,9.35
2023-02-11T00:27:28.386Z,7.75
2023-02-11T00:30:30.354Z,8.13
2023-02-11T00:33:32.247Z,7.90
2023-02-11T00:36:34.212Z,8.98
2023-02-11T00:39:37.093Z,8.47
2023-02-11T00:42:38.961Z,8.68
2023-02-11T00:45:40.859Z,8.27
2023-02-11T00:48:42.837Z,8.43
2023-02-11T00:51:44.771Z,7.83
2023-02-11T00:57:49.400Z,7.28
2023-02-11T01:00:51.659Z,7.60
2023-02-11T01:03:53.530Z,7.33
2023-02-11T01:06:58.045Z,7.63
2023-02-11T01:10:00.867Z,8.45
2023-02-11T01:13:06.524Z,8.15
2023-02-11T01:16:10.149Z,8.07
2023-02-11T01:19:12.414Z,8.82
2023-02-11T01:22:14.324Z,8.30
2023-02-11T01:25:16.321Z,8.60
2023-02-11T01:28:20.657Z,7.83
2023-02-11T01:31:22.582Z,7.25
2023-02-11T01:34:24.623Z,7.37
2023-02-11T01:37:26.781Z,6.27
2023-02-11T01:40:28.632Z,7.70
2023-02-11T01:43:50.276Z,7.68
2023-02-11T01:46:52.409Z,7.22
2023-02-11T01:49:57.916Z,8.68
2023-02-11T01:53:20.081Z,7.63
2023-02-11T01:56:42.601Z,8.35
2023-02-11T02:00:10.109Z,8.70
2023-02-11T02:03:22.599Z,7.88
2023-02-11T02:06:37.346Z,8.00
2023-02-11T02:09:45.626Z,8.05
2023-02-11T02:12:47.948Z,8.30
2023-02-11T02:16:09.931Z,7.63
2023-02-11T02:20:02.918Z,8.35
2023-02-11T02:23:07.656Z,7.78
2023-02-11T02:26:30.707Z,7.32
2023-02-11T02:29:57.462Z,7.75
2023-02-11T02:33:23.016Z,8.55
2023-02-11T02:36:41.296Z,8.52
2023-02-11T02:39:46.983Z,8.18
2023-02-11T02:42:50.931Z,7.82
2023-02-11T02:45:53.311Z,8.68
2023-02-11T02:48:56.059Z,7.55
2023-02-11T02:52:12.741Z,8.50
2023-02-11T02:55:22.214Z,8.38
2023-02-11T02:58:34.836Z,7.90
2023-02-11T03:01:39.725Z,8.43
2023-02-11T03:05:03.580Z,8.38
2023-02-11T03:08:09.586Z,8.10
2023-02-11T03:11:13.482Z,8.10
2023-02-11T03:14:18.093Z,7.38
2023-02-11T03:17:22.025Z,7.93
2023-02-11T03:20:24.045Z,8.23
2023-02-11T03:23:30.853Z,8.47
2023-02-11T03:26:49.615Z,8.48
2023-02-11T03:30:00.104Z,8.68
2023-02-11T03:33:12.615Z,7.97
2023-02-11T03:36:24.413Z,9.02
2023-02-11T03:39:34.097Z,8.35
2023-02-11T03:42:46.060Z,8.73
2023-02-11T03:45:51.484Z,8.60
2023-02-11T03:48:59.385Z,8.68
2023-02-11T03:52:03.552Z,8.77
2023-02-11T03:55:12.432Z,9.15
2023-02-11T03:58:14.656Z,8.55
2023-02-11T04:01:17.061Z,8.52
2023-02-11T04:04:19.238Z,6.55
2023-02-11T04:07:21.103Z,8.83
2023-02-11T04:10:22.922Z,9.20
2023-02-11T04:13:24.760Z,9.55
2023-02-11T04:16:26.781Z,8.60
2023-02-11T04:19:28.650Z,9.40
2023-02-11T04:22:31.545Z,9.95
2023-02-11T04:28:36.371Z,8.27
2023-02-11T04:31:38.269Z,9.73
2023-02-11T04:34:40.363Z,10.13
2023-02-11T04:37:42.188Z,9.93
2023-02-11T04:40:44.072Z,11.32
2023-02-11T04:43:45.985Z,10.30
2023-02-11T04:46:48.316Z,11.10
2023-02-11T04:49:50.196Z,10.13
2023-02-11T04:52:52.054Z,10.73
2023-02-11T04:55:53.922Z,10.05
2023-02-11T04:58:55.822Z,11.00
2023-02-11T05:01:57.816Z,11.25
2023-02-11T05:04:59.730Z,10.83
2023-02-11T05:08:01.583Z,10.75
2023-02-11T05:11:03.738Z,10.27
2023-02-11T05:14:06.659Z,8.35
2023-02-11T05:17:08.554Z,10.05
2023-02-11T05:20:10.943Z,9.73
2023-02-11T05:23:12.766Z,10.02
2023-02-11T05:26:14.972Z,10.52
2023-02-11T05:29:16.721Z,11.25
2023-02-11T05:32:18.551Z,10.32
2023-02-11T05:35:20.542Z,11.52
2023-02-11T05:38:22.294Z,12.17
2023-02-11T05:41:24.458Z,13.02
2023-02-11T05:44:26.356Z,16.88
2023-02-11T05:47:28.219Z,13.10
2023-02-11T05:50:30.071Z,12.15
2023-02-11T05:53:31.931Z,11.10
2023-02-11T05:56:33.782Z,12.15
2023-02-11T05:59:35.688Z,11.38
2023-02-11T06:02:37.526Z,11.30
2023-02-11T06:05:39.382Z,11.52
2023-02-11T06:08:41.679Z,11.52
2023-02-11T06:11:43.502Z,11.07
2023-02-11T06:14:45.368Z,11.85
2023-02-11T06:17:47.323Z,11.50
2023-02-11T06:20:49.191Z,12.10
2023-02-11T06:23:50.957Z,10.85
2023-02-11T06:26:52.766Z,13.10
2023-02-11T06:29:54.602Z,21.42
2023-02-11T06:32:56.505Z,17.08
2023-02-11T06:35:58.280Z,14.40
2023-02-11T06:39:00.044Z,13.02
2023-02-11T06:42:01.879Z,12.98
2023-02-11T06:45:06.144Z,12.75
2023-02-11T06:48:08.050Z,13.05
2023-02-11T06:51:12.105Z,12.73
2023-02-11T06:54:13.944Z,12.60
2023-02-11T06:57:15.800Z,14.02
2023-02-11T07:00:17.876Z,12.63
2023-02-11T07:03:19.738Z,13.90
2023-02-11T07:06:23.863Z,13.05
2023-02-11T07:09:25.657Z,14.75
2023-02-11T07:12:27.485Z,13.25
2023-02-11T07:15:29.342Z,13.50
2023-02-11T07:18:31.220Z,14.65
2023-02-11T07:21:33.163Z,15.88
2023-02-11T07:24:34.927Z,15.60
2023-02-11T07:27:36.889Z,14.88
2023-02-11T07:30:38.763Z,14.45
2023-02-11T07:33:42.923Z,12.95
2023-02-11T07:36:45.217Z,13.05
2023-02-11T07:39:46.995Z,13.95
2023-02-11T07:42:48.780Z,13.90
2023-02-11T07:45:50.882Z,13.88
2023-02-11T07:48:53.099Z,14.18
2023-02-11T07:51:55.075Z,15.27
2023-02-11T07:54:57.412Z,13.98
2023-02-11T07:57:59.246Z,16.48
2023-02-11T08:01:03.182Z,15.02
2023-02-11T08:04:05.306Z,13.77
2023-02-11T08:07:07.183Z,15.10
2023-02-11T08:10:09.211Z,14.88
2023-02-11T08:13:11.001Z,13.77
2023-02-11T08:16:26.930Z,14.70
2023-02-11T08:19:29.085Z,15.35
2023-02-11T08:22:35.046Z,15.30
2023-02-11T08:25:36.922Z,15.05
2023-02-11T08:28:40.567Z,15.25
2023-02-11T08:31:45.672Z,15.25
2023-02-11T08:34:51.593Z,15.77
2023-02-11T08:37:53.517Z,14.32
2023-02-11T08:40:55.351Z,14.73
2023-02-11T08:43:57.263Z,15.52
2023-02-11T08:46:59.101Z,15.52
2023-02-11T08:50:00.850Z,14.63
2023-02-11T08:53:02.734Z,15.32
2023-02-11T08:56:06.152Z,15.05
2023-02-11T08:59:09.544Z,14.63
2023-02-11T09:02:14.948Z,14.38
2023-02-11T09:05:16.846Z,16.65
2023-02-11T09:08:19.483Z,15.48
2023-02-11T09:11:26.129Z,15.73
2023-02-11T09:14:28.378Z,16.50
2023-02-11T09:17:30.229Z,15.18
2023-02-11T09:20:32.293Z,14.65
2023-02-11T09:23:34.880Z,15.40
2023-02-11T09:26:37.122Z,15.48
2023-02-11T09:29:38.907Z,16.80
2023-02-11T09:32:40.775Z,14.80
2023-02-11T09:35:42.563Z,15.45
2023-02-11T09:38:44.590Z,14.23
2023-02-11T09:42:07.927Z,14.63
2023-02-11T09:48:18.637Z,15.27
2023-02-11T09:51:40.781Z,14.65
2023-02-11T09:54:56.780Z,14.80
2023-02-11T09:57:58.906Z,13.43
2023-02-11T10:01:41.302Z,13.70
2023-02-11T10:05:20.966Z,15.50
2023-02-11T10:08:49.968Z,13.30
2023-02-11T10:12:20.525Z,13.43
2023-02-11T10:16:16.569Z,14.55
2023-02-11T10:19:31.149Z,14.82
2023-02-11T10:22:39.857Z,15.27
2023-02-11T10:25:49.125Z,14.70
2023-02-11T10:28:55.099Z,14.20
2023-02-11T10:31:58.924Z,15.07
2023-02-11T10:35:15.245Z,16.98
2023-02-11T10:38:17.048Z,14.93
2023-02-11T10:44:37.946Z,14.80
2023-02-11T10:47:41.612Z,16.58
2023-02-11T10:50:43.397Z,16.30
2023-02-11T10:53:46.993Z,14.23
2023-02-11T10:56:52.874Z,15.73
2023-02-11T11:00:02.592Z,14.32
2023-02-11T11:03:21.139Z,14.82
2023-02-11T11:06:33.718Z,15.73
2023-02-11T11:09:48.638Z,15.98
2023-02-11T11:12:50.882Z,16.05
2023-02-11T11:16:13.015Z,15.60
2023-02-11T11:19:22.946Z,15.77
2023-02-11T11:22:24.808Z,14.88
2023-02-11T11:25:30.603Z,15.77
2023-02-11T11:29:01.774Z,15.13
2023-02-11T11:32:11.717Z,15.38
2023-02-11T11:35:27.582Z,14.93
2023-02-11T11:38:31.638Z,15.38
2023-02-11T11:41:34.827Z,15.85
2023-02-11T11:44:39.643Z,16.02
2023-02-11T11:48:06.542Z,16.55
2023-02-11T11:51:12.809Z,17.48
2023-02-11T11:54:18.486Z,16.30
2023-02-11T11:57:26.114Z,17.27
2023-02-11T12:00:44.109Z,17.35
2023-02-11T12:04:10.812Z,17.08
2023-02-11T12:07:40.425Z,18.65
2023-02-11T12:11:19.511Z,17.33
2023-02-11T12:14:46.218Z,17.48
2023-02-11T12:18:06.399Z,19.98
2023-02-11T12:21:17.043Z,19.40
2023-02-11T12:24:37.064Z,18.73
2023-02-11T12:27:54.871Z,18.67
2023-02-11T12:31:02.492Z,16.98
2023-02-11T12:34:19.102Z,17.80
2023-02-11T12:37:35.133Z,16.85
2023-02-11T12:40:46.147Z,16.48
2023-02-11T12:43:48.185Z,17.98
2023-02-11T12:47:21.979Z,18.53
2023-02-11T12:50:42.547Z,16.27
2023-02-11T12:54:22.885Z,17.33
2023-02-11T12:57:32.148Z,17.33
2023-02-11T13:00:47.695Z,16.45
2023-02-11T13:04:04.752Z,15.75
2023-02-11T13:07:16.010Z,15.98
2023-02-11T13:10:30.179Z,16.95
2023-02-11T13:13:39.395Z,15.27
2023-02-11T13:16:47.564Z,15.60
2023-02-11T13:19:58.936Z,15.90
2023-02-11T13:23:09.794Z,14.95
2023-02-11T13:26:18.985Z,15.48
2023-02-11T13:29:38.031Z,15.48
2023-02-11T13:32:55.619Z,17.10
2023-02-11T13:35:57.327Z,15.75
2023-02-11T13:39:02.823Z,16.58
2023-02-11T13:42:05.009Z,17.02
2023-02-11T13:45:25.106Z,16.63
2023-02-11T13:48:38.288Z,15.95
2023-02-11T13:54:49.089Z,16.63
2023-02-11T13:58:14.184Z,16.52
2023-02-11T14:02:06.724Z,18.25
2023-02-11T14:05:27.448Z,15.75
2023-02-11T14:08:47.896Z,16.15
2023-02-11T14:12:14.592Z,17.98
2023-02-11T14:15:21.826Z,17.00
2023-02-11T14:18:45.567Z,16.95
2023-02-11T14:21:47.512Z,17.63
2023-02-11T14:24:54.180Z,17.73
2023-02-11T14:28:21.751Z,17.27
2023-02-11T14:31:31.889Z,17.60
2023-02-11T14:34:43.054Z,17.00
2023-02-11T14:37:51.383Z,17.23
2023-02-11T14:41:24.669Z,18.20
2023-02-11T14:44:30.390Z,18.15
2023-02-11T14:47:45.066Z,18.67
2023-02-11T14:50:52.085Z,17.92
2023-02-11T14:54:10.976Z,18.83
2023-02-11T14:57:20.748Z,19.67
2023-02-11T15:00:23.152Z,21.80
2023-02-11T15:03:37.402Z,21.00
2023-02-11T15:06:42.612Z,21.58
2023-02-11T15:09:50.100Z,20.52
2023-02-11T15:12:52.356Z,20.63
2023-02-11T15:16:22.528Z,23.13
2023-02-11T15:19:38.743Z,23.90
2023-02-11T15:22:40.592Z,22.55
2023-02-11T15:25:56.040Z,23.48
2023-02-11T15:28:58.543Z,21.65
2023-02-11T15:32:27.197Z,21.85
2023-02-11T15:35:40.990Z,24.50
2023-02-11T15:38:43.182Z,21.77
2023-02-11T15:41:45.285Z,22.50
2023-02-11T15:44:54.346Z,21.67
2023-02-11T15:48:10.862Z,21.00
2023-02-11T15:51:12.842Z,23.08
2023-02-11T15:54:26.756Z,22.10
2023-02-11T15:57:29.077Z,24.08
2023-02-11T16:00:48.214Z,23.25
2023-02-11T16:03:50.722Z,23.33
2023-02-11T16:06:54.525Z,24.08
2023-02-11T16:09:58.638Z,21.40
2023-02-11T16:13:06.432Z,23.73
2023-02-11T16:16:19.646Z,22.58
2023-02-11T16:22:35.550Z,22.10
2023-02-11T16:25:37.981Z,21.55
2023-02-11T16:28:40.880Z,22.83
2023-02-11T16:31:48.332Z,22.80
2023-02-11T16:34:51.526Z,21.92
2023-02-11T16:37:54.427Z,21.05
2023-02-11T16:40:56.244Z,22.08
2023-02-11T16:43:58.903Z,20.75
2023-02-11T16:47:03.486Z,20.40
2023-02-11T16:50:09.521Z,20.50
2023-02-11T16:53:12.170Z,22.30
2023-02-11T16:56:18.435Z,22.38
2023-02-11T16:59:20.882Z,22.50
2023-02-11T17:02:33.344Z,23.83
2023-02-11T17:05:58.301Z,22.08
2023-02-11T17:08:57.930Z,29.90
2023-02-11T17:12:00.286Z,22.83
2023-02-11T17:15:02.264Z,22.95
2023-02-11T17:18:04.455Z,21.38
2023-02-11T17:21:07.278Z,22.10
2023-02-11T17:24:09.338Z,21.38
2023-02-11T17:27:12.027Z,22.33
2023-02-11T17:30:14.626Z,21.23
2023-02-11T17:33:16.667Z,22.48
2023-02-11T17:36:18.553Z,21.90
2023-02-11T17:39:21.180Z,22.60
2023-02-11T17:42:23.284Z,21.73
2023-02-11T17:45:25.205Z,23.67
2023-02-11T17:48:26.995Z,20.55
2023-02-11T17:51:37.347Z,22.45
2023-02-11T17:54:39.742Z,22.80
2023-02-11T17:57:41.640Z,23.45
2023-02-11T18:00:43.520Z,22.00
2023-02-11T18:03:45.982Z,22.60
2023-02-11T18:06:47.813Z,21.95
2023-02-11T18:09:49.616Z,20.42
2023-02-11T18:12:51.442Z,21.15
2023-02-11T18:15:53.699Z,21.60
2023-02-11T18:18:57.685Z,22.38
2023-02-11T18:22:01.056Z,22.05
2023-02-11T18:25:03.113Z,22.90
2023-02-11T18:28:05.197Z,21.52
2023-02-11T18:31:09.060Z,21.67
2023-02-11T18:34:11.771Z,21.83
2023-02-11T18:37:14.429Z,22.38
2023-02-11T18:40:16.290Z,21.50
2023-02-11T18:43:20.101Z,21.63
2023-02-11T18:46:22.110Z,21.42
2023-02-11T18:49:24.122Z,20.83
2023-02-11T18:52:26.076Z,20.83
2023-02-11T18:55:27.937Z,21.30
2023-02-11T18:58:29.958Z,21.15
2023-02-11T19:01:33.712Z,21.97
2023-02-11T19:04:37.526Z,20.98
2023-02-11T19:07:39.752Z,21.38
2023-02-11T19:10:43.583Z,16.42
2023-02-11T19:13:49.772Z,20.08
2023-02-11T19:16:54.043Z,19.58
2023-02-11T19:19:55.971Z,21.23
2023-02-11T19:22:57.981Z,20.88
2023-02-11T19:25:59.972Z,20.43
2023-02-11T19:29:02.348Z,20.85
2023-02-11T19:32:08.932Z,20.83
2023-02-11T19:35:10.983Z,20.67
2023-02-11T19:38:14.215Z,20.87
2023-02-11T19:41:16.236Z,19.88
2023-02-11T19:44:18.164Z,20.52
2023-02-11T19:47:20.083Z,19.67
2023-02-11T19:50:22.301Z,20.30
2023-02-11T19:53:24.692Z,19.83
2023-02-11T19:56:28.873Z,20.90
2023-02-11T19:59:30.815Z,20.08
2023-02-11T20:02:32.867Z,20.40
2023-02-11T20:05:35.180Z,19.67
2023-02-11T20:08:37.037Z,15.90
2023-02-11T20:11:40.613Z,18.95
2023-02-11T20:14:42.705Z,21.23
2023-02-11T20:17:44.860Z,19.60
2023-02-11T20:20:46.847Z,18.93
2023-02-11T20:23:50.045Z,19.17
2023-02-11T20:26:55.933Z,19.77
2023-02-11T20:29:58.068Z,19.02
2023-02-11T20:32:59.849Z,21.25
2023-02-11T20:36:08.043Z,19.85
2023-02-11T20:39:11.440Z,18.33
2023-02-11T20:42:14.725Z,18.48
2023-02-11T20:45:16.650Z,18.30
2023-02-11T20:48:18.592Z,18.08
2023-02-11T20:51:23.999Z,19.15
2023-02-11T20:54:26.238Z,18.42
2023-02-11T20:57:28.558Z,18.30
2023-02-11T21:00:31.034Z,17.65
2023-02-11T21:03:32.879Z,16.88
2023-02-11T21:06:40.339Z,16.80
2023-02-11T21:09:42.284Z,17.17
2023-02-11T21:12:44.182Z,17.17
2023-02-11T21:15:46.080Z,16.95
2023-02-11T21:18:49.263Z,18.30
2023-02-11T21:21:51.317Z,16.10
2023-02-11T21:24:53.171Z,16.27
2023-02-11T21:27:55.107Z,16.73
2023-02-11T21:30:58.368Z,15.75
2023-02-11T21:34:00.417Z,16.80
2023-02-11T21:37:02.277Z,16.60
2023-02-11T21:40:04.551Z,15.55
2023-02-11T21:43:06.564Z,16.05
2023-02-11T21:46:11.284Z,14.57
2023-02-11T21:49:13.427Z,15.38
2023-02-11T21:52:15.340Z,16.10
2023-02-11T21:55:17.243Z,15.30
2023-02-11T21:58:19.055Z,16.52
2023-02-11T22:01:30.776Z,15.05
2023-02-11T22:04:33.473Z,14.95
2023-02-11T22:07:36.557Z,14.35
2023-02-11T22:13:42.393Z,14.55
2023-02-11T22:16:46.097Z,14.20
2023-02-11T22:19:47.961Z,13.98
2023-02-11T22:22:50.788Z,13.40
2023-02-11T22:25:52.820Z,13.90
2023-02-11T22:28:55.492Z,14.00
2023-02-11T22:31:57.417Z,14.07
2023-02-11T22:34:59.343Z,14.75
2023-02-11T22:38:01.161Z,14.25
2023-02-11T22:41:09.549Z,13.68
2023-02-11T22:44:12.044Z,14.45
2023-02-11T22:47:13.859Z,13.63
2023-02-11T22:50:15.854Z,13.70
2023-02-11T22:53:17.708Z,13.38
2023-02-11T22:56:20.106Z,13.73
2023-02-11T22:59:21.980Z,13.05
2023-02-11T23:02:23.804Z,13.77
2023-02-11T23:05:25.671Z,14.45
2023-02-11T23:08:29.577Z,12.68
2023-02-11T23:11:32.488Z,13.55
2023-02-11T23:14:34.345Z,13.63
2023-02-11T23:17:36.437Z,13.52
2023-02-11T23:20:40.818Z,13.17
2023-02-11T23:23:42.980Z,13.43
2023-02-11T23:26:45.139Z,13.60
2023-02-11T23:29:46.942Z,10.80
2023-02-11T23:32:49.981Z,13.38
2023-02-11T23:38:53.515Z,12.07
2023-02-11T23:41:59.597Z,13.52
2023-02-11T23:45:01.589Z,13.00
2023-02-11T23:48:03.527Z,10.55
2023-02-11T23:51:06.455Z,12.95
2023-02-11T23:54:12.317Z,12.93
2023-02-11T23:57:14.446Z,12.93
